Time;durP1;ratioP1;P1;durP2;ratioP2;P2;SDS_P1;SDS_P2;PMS_P1;PMS_P2;Temp;Humidity;BMP_temperature;BMP_pressure;BME280_temperature;BME280_humidity;BME280_pressure;Samples;Min_cycle;Max_cycle;Signal;HPM_P1;HPM_P2
2022/11/02 00:01:36;;;;;;;11.83;2.57;;;13.40;1.00;;;;;;5088906;28;20563;-68
2022/11/02 00:04:03;;;;;;;10.40;3.07;;;13.40;1.00;;;;;;5081571;28;20198;-65
2022/11/02 00:06:30;;;;;;;9.83;2.50;;;13.40;1.00;;;;;;5079460;28;20226;-69
2022/11/02 00:08:57;;;;;;;16.27;2.93;;;13.50;1.00;;;;;;5081161;28;20205;-66
2022/11/02 00:11:24;;;;;;;8.93;2.70;;;13.50;1.00;;;;;;5101653;28;20833;-67
2022/11/02 00:13:52;;;;;;;10.13;2.57;;;13.50;1.00;;;;;;5098068;28;20195;-69
2022/11/02 00:16:21;;;;;;;8.70;2.20;;;13.50;1.00;;;;;;5082772;28;20210;-69
2022/11/02 00:18:52;;;;;;;12.07;2.70;;;13.60;1.00;;;;;;5099938;28;20744;-68
2022/11/02 00:21:20;;;;;;;8.73;2.37;;;13.60;1.00;;;;;;5098872;28;20672;-68
2022/11/02 00:23:48;;;;;;;9.90;2.90;;;13.60;1.00;;;;;;5064571;28;20669;-68
2022/11/02 00:26:16;;;;;;;8.47;2.30;;;13.60;1.00;;;;;;5073561;28;20233;-68
2022/11/02 00:28:44;;;;;;;13.13;2.57;;;13.60;1.00;;;;;;5098665;28;20700;-68
2022/11/02 00:31:11;;;;;;;13.10;2.87;;;13.60;1.00;;;;;;5088230;28;20222;-68
2022/11/02 00:33:38;;;;;;;14.00;2.87;;;13.60;1.00;;;;;;5081825;28;20301;-69
2022/11/02 00:36:05;;;;;;;11.57;3.13;;;13.60;1.00;;;;;;5099808;28;20304;-66
2022/11/02 00:38:32;;;;;;;15.03;2.63;;;13.70;1.00;;;;;;5081885;28;20676;-67
2022/11/02 00:40:59;;;;;;;12.07;2.40;;;13.70;1.00;;;;;;5092100;28;20224;-69
2022/11/02 00:43:26;;;;;;;10.40;2.87;;;13.80;1.00;;;;;;5104291;28;20266;-69
2022/11/02 00:45:53;;;;;;;11.00;2.60;;;13.80;1.00;;;;;;5084963;28;20197;-69
2022/11/02 00:48:21;;;;;;;11.10;2.47;;;13.80;1.00;;;;;;5092679;28;20292;-69
2022/11/02 00:50:48;;;;;;;10.43;2.37;;;13.80;1.00;;;;;;5104379;28;20720;-70
2022/11/02 00:53:16;;;;;;;11.80;2.33;;;13.80;1.00;;;;;;5076579;28;20408;-68
2022/11/02 00:55:50;;;;;;;10.80;2.63;;;13.90;1.00;;;;;;5086129;28;20201;-69
2022/11/02 00:58:17;;;;;;;12.57;2.97;;;13.90;1.00;;;;;;5069557;28;20209;-70
2022/11/02 01:00:44;;;;;;;9.50;2.43;;;13.90;1.00;;;;;;5084398;28;20379;-67
2022/11/02 01:03:11;;;;;;;10.27;2.40;;;13.90;1.00;;;;;;5074820;28;20221;-68
2022/11/02 01:05:38;;;;;;;8.40;2.20;;;14.00;1.00;;;;;;5100836;28;20197;-67
2022/11/02 01:08:05;;;;;;;8.53;2.03;;;14.00;1.00;;;;;;5086404;28;20551;-68
2022/11/02 01:10:32;;;;;;;14.47;3.10;;;14.00;1.00;;;;;;5075852;28;20868;-67
2022/11/02 01:13:00;;;;;;;11.50;2.27;;;14.00;1.00;;;;;;5075597;28;20193;-67
2022/11/02 01:15:27;;;;;;;8.70;2.00;;;13.90;1.00;;;;;;5086787;28;20202;-67
2022/11/02 01:17:54;;;;;;;12.30;3.20;;;13.80;1.00;;;;;;5092436;28;20185;-67
2022/11/02 01:20:21;;;;;;;9.67;2.37;;;13.70;1.00;;;;;;5103208;28;20216;-68
2022/11/02 01:22:48;;;;;;;11.00;2.57;;;13.70;1.00;;;;;;5091016;28;20210;-68
2022/11/02 01:25:15;;;;;;;7.83;2.33;;;13.70;1.00;;;;;;5084764;28;20198;-68
2022/11/02 01:27:42;;;;;;;12.93;2.50;;;13.70;1.00;;;;;;5091934;28;20225;-68
2022/11/02 01:30:11;;;;;;;7.90;2.20;;;13.70;1.00;;;;;;5103129;28;20272;-68
2022/11/02 01:32:38;;;;;;;9.77;2.03;;;13.60;1.00;;;;;;5100598;28;20212;-68
2022/11/02 01:35:05;;;;;;;11.57;2.67;;;13.70;1.00;;;;;;5103868;28;20209;-70
2022/11/02 01:37:32;;;;;;;13.23;3.43;;;13.70;1.00;;;;;;5103105;28;20217;-69
2022/11/02 01:39:59;;;;;;;11.73;2.60;;;13.70;1.00;;;;;;5085378;28;20217;-69
2022/11/02 01:42:27;;;;;;;12.50;2.43;;;13.70;1.00;;;;;;5069919;28;20218;-69
2022/11/02 01:44:55;;;;;;;12.17;2.60;;;13.70;1.00;;;;;;5074065;28;20203;-68
2022/11/02 01:47:34;;;;;;;11.27;2.40;;;13.80;1.00;;;;;;5103070;28;20194;-68
2022/11/02 01:50:06;;;;;;;11.70;2.33;;;13.80;1.00;;;;;;5085445;28;20230;-68
2022/11/02 01:52:36;;;;;;;5.80;2.10;;;13.70;1.00;;;;;;5068693;28;20247;-68
2022/11/02 01:55:18;;;;;;;13.90;2.70;;;13.80;1.00;;;;;;5091721;28;20217;-68
2022/11/02 01:57:50;;;;;;;9.10;2.30;;;13.70;1.00;;;;;;5072706;28;20300;-69
2022/11/02 02:00:17;;;;;;;8.47;2.57;;;13.60;1.00;;;;;;5069571;28;20233;-68
2022/11/02 02:03:00;;;;;;;11.33;2.70;;;13.60;1.00;;;;;;5103117;28;20218;-68
2022/11/02 02:05:28;;;;;;;11.73;2.63;;;13.50;1.00;;;;;;5090815;28;20194;-67
2022/11/02 02:07:55;;;;;;;9.10;2.50;;;13.40;1.00;;;;;;5104424;28;20194;-67
2022/11/02 02:10:23;;;;;;;10.33;2.50;;;13.40;1.00;;;;;;5069701;28;20190;-69
2022/11/02 02:12:50;;;;;;;10.77;2.40;;;13.30;1.00;;;;;;5074878;28;20193;-67
2022/11/02 02:15:23;;;;;;;9.20;2.23;;;13.30;1.00;;;;;;5085373;28;20201;-68
2022/11/02 02:17:59;;;;;;;13.30;4.97;;;13.30;1.00;;;;;;5090874;28;20577;-68
2022/11/02 02:20:39;;;;;;;14.20;5.00;;;13.30;1.00;;;;;;5090694;28;20193;-67
2022/11/02 02:23:44;;;;;;;15.07;2.73;;;13.30;1.00;;;;;;5103563;28;20252;-68
2022/11/02 02:26:26;;;;;;;9.20;2.63;;;13.20;1.00;;;;;;5090230;28;20534;-69
2022/11/02 02:28:59;;;;;;;8.00;2.03;;;13.10;1.00;;;;;;5084275;28;20218;-69
2022/11/02 02:31:39;;;;;;;15.10;2.80;;;13.10;1.00;;;;;;5064035;28;20198;-66
2022/11/02 02:34:19;;;;;;;12.63;2.40;;;13.10;1.00;;;;;;5070004;28;20293;-68
2022/11/02 02:36:56;;;;;;;8.27;2.53;;;13.00;1.00;;;;;;5080872;28;20599;-67
2022/11/02 02:39:41;;;;;;;10.90;2.80;;;13.00;1.00;;;;;;5056003;28;20301;-68
2022/11/02 02:42:15;;;;;;;8.83;2.20;;;13.10;1.00;;;;;;5052610;28;20714;-69
2022/11/02 02:45:08;;;;;;;8.33;2.17;;;13.10;1.00;;;;;;5061668;28;20547;-69
2022/11/02 02:47:40;;;;;;;9.70;2.30;;;13.10;1.00;;;;;;5080670;28;20224;-69
2022/11/02 02:50:16;;;;;;;10.70;2.23;;;13.20;1.00;;;;;;5061537;28;20253;-69
2022/11/02 02:52:45;;;;;;;10.50;2.40;;;13.20;1.00;;;;;;5045825;28;20680;-69
2022/11/02 02:55:17;;;;;;;11.20;2.10;;;13.30;1.00;;;;;;5062107;28;20621;-69
2022/11/02 02:57:45;;;;;;;13.17;3.50;;;13.30;1.00;;;;;;5055117;28;20194;-69
2022/11/02 03:00:15;;;;;;;9.07;2.23;;;13.20;1.00;;;;;;5080866;28;20199;-69
2022/11/02 03:03:01;;;;;;;8.80;2.33;;;13.20;1.00;;;;;;5051370;28;20257;-68
2022/11/02 03:05:34;;;;;;;9.47;2.20;;;13.10;1.00;;;;;;5079539;28;20213;-67
2022/11/02 03:08:09;;;;;;;9.03;2.00;;;13.10;1.00;;;;;;5077477;28;20191;-68
2022/11/02 03:10:49;;;;;;;10.37;2.47;;;13.00;1.00;;;;;;5062562;28;20267;-67
2022/11/02 03:13:35;;;;;;;10.27;2.60;;;13.00;1.00;;;;;;5062736;28;20229;-69
2022/11/02 03:16:27;;;;;;;10.40;2.27;;;12.90;1.00;;;;;;5053551;28;20198;-69
2022/11/02 03:19:03;;;;;;;9.27;2.57;;;13.00;1.00;;;;;;5077085;28;20253;-68
2022/11/02 03:21:35;;;;;;;8.57;2.03;;;13.10;1.00;;;;;;5063362;28;20293;-68
2022/11/02 03:24:23;;;;;;;10.20;2.23;;;13.10;1.00;;;;;;5078481;28;20597;-68
2022/11/02 03:27:00;;;;;;;11.17;2.63;;;13.00;1.00;;;;;;5066205;28;20227;-69
2022/11/02 03:29:55;;;;;;;13.43;2.57;;;12.90;1.00;;;;;;5069342;28;20818;-67
2022/11/02 03:32:47;;;;;;;11.83;3.00;;;13.00;1.00;;;;;;5071191;28;20206;-68
2022/11/02 03:35:35;;;;;;;11.33;2.40;;;12.90;1.00;;;;;;5064350;28;20841;-68
2022/11/02 03:38:13;;;;;;;9.53;2.30;;;12.80;1.00;;;;;;5085761;28;20558;-68
2022/11/02 03:40:47;;;;;;;8.87;2.33;;;12.80;1.00;;;;;;5085436;28;20206;-67
2022/11/02 03:43:17;;;;;;;8.87;2.20;;;12.70;1.00;;;;;;5078001;28;20238;-68
2022/11/02 03:45:52;;;;;;;8.03;2.70;;;12.60;1.00;;;;;;5078820;28;20195;-67
2022/11/02 03:48:22;;;;;;;7.77;3.17;;;12.90;1.00;;;;;;5069972;28;20256;-68
2022/11/02 03:50:51;;;;;;;12.23;2.73;;;12.90;1.00;;;;;;5084787;28;20293;-68
2022/11/02 03:53:24;;;;;;;7.73;2.30;;;12.90;1.00;;;;;;5094495;28;20201;-69
2022/11/02 03:55:58;;;;;;;9.10;2.43;;;12.90;1.00;;;;;;5085474;28;20674;-69
2022/11/02 03:58:25;;;;;;;10.57;2.53;;;12.80;1.00;;;;;;5078062;28;21432;-69
2022/11/02 04:00:59;;;;;;;9.50;1.97;;;12.90;1.00;;;;;;5068151;28;20202;-67
2022/11/02 04:03:29;;;;;;;11.07;2.40;;;12.90;1.00;;;;;;5078473;28;20814;-68
2022/11/02 04:05:56;;;;;;;7.30;2.23;;;12.90;1.00;;;;;;5078103;28;20198;-68
2022/11/02 04:08:35;;;;;;;7.90;2.20;;;12.80;1.00;;;;;;5097458;28;21038;-69
2022/11/02 04:16:42;;;;;;;6.93;2.50;;;12.70;1.00;;;;;;5083736;28;20204;-69
2022/11/02 04:19:27;;;;;;;12.70;2.40;;;12.70;1.00;;;;;;5078385;28;20276;-68
2022/11/02 04:27:37;;;;;;;5.87;2.07;;;12.70;1.00;;;;;;5077636;28;20225;-69
2022/11/02 04:30:04;;;;;;;11.53;3.27;;;12.60;1.00;;;;;;5078887;28;20660;-69
2022/11/02 04:35:27;;;;;;;8.33;2.57;;;12.70;1.00;;;;;;5081842;28;20623;-69
2022/11/02 04:40:43;;;;;;;9.50;3.07;;;12.60;1.00;;;;;;5094715;28;20202;-68
2022/11/02 04:43:10;;;;;;;8.13;2.10;;;12.60;1.00;;;;;;5085145;28;20221;-68
2022/11/02 04:45:38;;;;;;;5.77;2.43;;;12.60;1.00;;;;;;5078895;28;20206;-68
2022/11/02 04:48:08;;;;;;;9.40;3.13;;;12.60;1.00;;;;;;5094403;28;20198;-68
2022/11/02 04:50:36;;;;;;;15.73;3.47;;;12.50;1.00;;;;;;5068063;28;20194;-69
2022/11/02 04:53:06;;;;;;;11.67;3.00;;;12.50;1.00;;;;;;5095132;28;20194;-69
2022/11/02 04:55:34;;;;;;;9.40;2.80;;;12.70;1.00;;;;;;5068943;28;20220;-68
2022/11/02 04:58:01;;;;;;;9.90;2.70;;;12.60;1.00;;;;;;5063289;28;20195;-68
2022/11/02 05:00:29;;;;;;;8.03;2.37;;;12.50;1.00;;;;;;5066308;28;20612;-66
2022/11/02 05:02:57;;;;;;;10.73;2.70;;;12.50;1.00;;;;;;5068464;28;20268;-67
2022/11/02 05:05:25;;;;;;;7.80;2.67;;;12.50;1.00;;;;;;5085098;28;20194;-68
2022/11/02 05:07:55;;;;;;;8.93;3.17;;;12.50;1.00;;;;;;5079352;28;20186;-68
2022/11/02 05:10:24;;;;;;;13.50;2.90;;;12.60;1.00;;;;;;5079168;28;20241;-68
2022/11/02 05:12:57;;;;;;;8.67;2.47;;;12.70;1.00;;;;;;5062378;28;20247;-68
2022/11/02 05:15:27;;;;;;;8.60;3.17;;;12.50;1.00;;;;;;5079002;28;20236;-67
2022/11/02 05:17:55;;;;;;;9.93;3.23;;;12.50;1.00;;;;;;5067510;28;20588;-69
2022/11/02 05:20:22;;;;;;;9.03;2.93;;;12.50;1.00;;;;;;5062207;28;20203;-68
2022/11/02 05:22:49;;;;;;;10.27;2.53;;;12.60;1.00;;;;;;5060528;28;20214;-69
2022/11/02 05:25:17;;;;;;;10.40;2.70;;;12.50;1.00;;;;;;5098540;28;20262;-68
2022/11/02 05:27:44;;;;;;;8.73;2.53;;;12.60;1.00;;;;;;5088210;28;20231;-68
2022/11/02 05:30:12;;;;;;;11.87;3.83;;;12.70;1.00;;;;;;5066528;28;20199;-69
2022/11/02 05:32:41;;;;;;;12.10;5.70;;;12.90;1.00;;;;;;5080865;28;20210;-69
2022/11/02 05:35:08;;;;;;;9.03;2.97;;;13.10;1.00;;;;;;5081954;28;20251;-67
2022/11/02 05:37:37;;;;;;;12.67;4.33;;;13.30;1.00;;;;;;5064532;28;21138;-68
2022/11/02 05:40:07;;;;;;;10.13;2.37;;;13.40;1.00;;;;;;5084322;28;20282;-67
2022/11/02 05:42:35;;;;;;;9.93;3.00;;;13.30;1.00;;;;;;5071143;28;20213;-68
2022/11/02 05:45:03;;;;;;;7.87;3.33;;;13.10;1.00;;;;;;5080798;28;20194;-68
2022/11/02 05:47:29;;;;;;;12.53;2.90;;;13.10;1.00;;;;;;5081924;28;20281;-67
2022/11/02 05:49:56;;;;;;;8.83;3.13;;;13.00;1.00;;;;;;5081646;28;20648;-67
2022/11/02 05:52:23;;;;;;;7.20;2.30;;;13.00;1.00;;;;;;5077261;28;20198;-66
2022/11/02 05:54:50;;;;;;;11.40;2.60;;;13.00;1.00;;;;;;5088043;28;20289;-66
2022/11/02 05:57:18;;;;;;;12.33;2.97;;;13.00;1.00;;;;;;5082095;28;20741;-67
2022/11/02 05:59:44;;;;;;;10.83;2.60;;;12.90;1.00;;;;;;5080081;28;20237;-66
2022/11/02 06:02:15;;;;;;;10.50;2.40;;;12.90;1.00;;;;;;5081550;28;20199;-66
2022/11/02 06:04:42;;;;;;;8.60;2.83;;;12.90;1.00;;;;;;5080629;28;20752;-66
2022/11/02 06:07:09;;;;;;;15.47;3.20;;;13.00;1.00;;;;;;5096521;28;20190;-65
2022/11/02 06:09:36;;;;;;;17.43;3.73;;;12.90;1.00;;;;;;5079125;28;20302;-68
2022/11/02 06:12:03;;;;;;;9.07;2.83;;;12.90;1.00;;;;;;5079235;28;20195;-66
2022/11/02 06:14:30;;;;;;;12.13;2.77;;;12.90;1.00;;;;;;5081845;28;20508;-64
2022/11/02 06:16:57;;;;;;;12.47;3.50;;;12.90;1.00;;;;;;5083739;28;20685;-66
2022/11/02 06:19:24;;;;;;;9.00;2.80;;;12.90;1.00;;;;;;5082055;28;20239;-63
2022/11/02 06:21:51;;;;;;;7.03;2.67;;;12.80;1.00;;;;;;5065110;28;20199;-66
2022/11/02 06:24:18;;;;;;;13.57;3.40;;;12.70;1.00;;;;;;5080480;28;20211;-67
2022/11/02 06:26:45;;;;;;;9.93;3.00;;;12.70;1.00;;;;;;5081449;28;20508;-67
2022/11/02 06:29:12;;;;;;;9.17;3.27;;;12.70;1.00;;;;;;5079822;28;20187;-67
2022/11/02 06:31:39;;;;;;;10.77;3.00;;;12.70;1.00;;;;;;5082142;28;20194;-64
2022/11/02 06:34:06;;;;;;;12.13;3.90;;;12.70;1.00;;;;;;5078205;28;20560;-67
2022/11/02 06:36:33;;;;;;;10.13;3.73;;;12.80;1.00;;;;;;5080996;28;20741;-66
2022/11/02 06:39:00;;;;;;;15.73;4.27;;;12.80;1.00;;;;;;5081960;28;20198;-66
2022/11/02 06:41:27;;;;;;;12.93;3.87;;;12.70;1.00;;;;;;5078768;28;20689;-69
2022/11/02 06:43:55;;;;;;;8.50;3.20;;;12.70;1.00;;;;;;5060995;28;20202;-65
2022/11/02 06:46:22;;;;;;;8.80;4.17;;;12.70;1.00;;;;;;5079745;28;20190;-66
2022/11/02 06:48:49;;;;;;;10.97;2.17;;;12.80;1.00;;;;;;5084069;28;20621;-64
2022/11/02 06:51:16;;;;;;;17.40;3.30;;;12.80;1.00;;;;;;5080061;28;20193;-65
2022/11/02 06:53:43;;;;;;;10.33;2.90;;;12.70;1.00;;;;;;5080610;28;20237;-65
2022/11/02 06:56:11;;;;;;;13.10;2.60;;;12.80;1.00;;;;;;5069084;28;20212;-64
2022/11/02 06:58:38;;;;;;;7.33;2.47;;;12.90;1.00;;;;;;5080562;28;20273;-64
2022/11/02 07:01:06;;;;;;;9.10;2.57;;;13.10;1.00;;;;;;5080873;28;20194;-62
2022/11/02 07:03:34;;;;;;;10.73;2.97;;;13.30;1.00;;;;;;5079653;28;20230;-64
2022/11/02 07:06:02;;;;;;;10.03;2.73;;;13.30;1.00;;;;;;5081080;28;20201;-65
2022/11/02 07:08:29;;;;;;;12.73;3.13;;;13.30;1.00;;;;;;5078995;28;20258;-64
2022/11/02 07:10:56;;;;;;;16.07;2.47;;;13.30;1.00;;;;;;5083365;28;20218;-66
2022/11/02 07:13:24;;;;;;;11.63;2.10;;;13.30;1.00;;;;;;5081703;28;20304;-66
2022/11/02 07:15:52;;;;;;;8.80;2.33;;;13.30;1.00;;;;;;5078955;28;20245;-65
2022/11/02 07:18:23;;;;;;;8.03;2.53;;;13.30;1.00;;;;;;5077943;28;20230;-64
2022/11/02 07:20:50;;;;;;;9.57;2.73;;;13.30;1.00;;;;;;5079890;28;20218;-65
2022/11/02 07:23:17;;;;;;;10.17;2.30;;;13.30;1.00;;;;;;5083026;28;20226;-61
2022/11/02 07:25:44;;;;;;;13.00;2.93;;;13.30;1.00;;;;;;5078231;28;20704;-64
2022/11/02 07:28:11;;;;;;;5.93;2.00;;;13.30;1.00;;;;;;5093481;28;20218;-64
2022/11/02 07:30:38;;;;;;;10.23;2.87;;;13.30;1.00;;;;;;5101412;28;20224;-64
2022/11/02 07:33:05;;;;;;;9.30;2.47;;;13.30;1.00;;;;;;5100006;28;20193;-65
2022/11/02 07:35:34;;;;;;;9.07;2.23;;;13.30;1.00;;;;;;5078085;28;20206;-65
2022/11/02 07:38:05;;;;;;;10.67;2.40;;;13.40;1.00;;;;;;5072329;28;20227;-64
2022/11/02 07:40:34;;;;;;;12.47;2.10;;;13.40;1.00;;;;;;5097974;28;20186;-65
2022/11/02 07:43:01;;;;;;;8.73;2.80;;;13.50;1.00;;;;;;5081305;28;20203;-63
2022/11/02 07:45:35;;;;;;;9.93;2.77;;;13.60;1.00;;;;;;5097542;28;20271;-64
2022/11/02 07:48:02;;;;;;;15.50;2.70;;;13.60;1.00;;;;;;5097409;28;20297;-65
2022/11/02 07:50:29;;;;;;;7.33;2.27;;;13.60;1.00;;;;;;5099398;28;20571;-65
2022/11/02 07:52:57;;;;;;;11.70;2.63;;;13.60;1.00;;;;;;5081634;28;20194;-66
2022/11/02 07:55:26;;;;;;;7.50;2.17;;;13.70;1.00;;;;;;5085353;28;20186;-65
2022/11/02 07:58:02;;;;;;;10.77;2.37;;;13.60;1.00;;;;;;5098697;28;20294;-65
2022/11/02 08:00:32;;;;;;;7.63;2.03;;;13.50;1.00;;;;;;5085686;28;20320;-66
2022/11/02 08:03:00;;;;;;;8.57;2.70;;;13.50;1.00;;;;;;5099910;28;20521;-64
2022/11/02 08:05:29;;;;;;;7.90;2.57;;;13.50;1.00;;;;;;5098718;28;20201;-64
2022/11/02 08:08:10;;;;;;;8.80;2.63;;;13.40;1.00;;;;;;5100524;28;20193;-63
2022/11/02 08:10:37;;;;;;;10.30;3.37;;;13.40;1.00;;;;;;5081627;28;20752;-65
2022/11/02 08:13:08;;;;;;;12.60;2.87;;;13.60;1.00;;;;;;5096147;28;20197;-66
2022/11/02 08:15:35;;;;;;;8.57;2.33;;;13.90;1.00;;;;;;5100777;28;20177;-63
2022/11/02 08:18:04;;;;;;;9.70;3.27;;;14.20;1.00;;;;;;5064050;28;20194;-65
2022/11/02 08:20:34;;;;;;;9.83;2.93;;;14.40;1.00;;;;;;5102635;28;20194;-64
2022/11/02 08:23:02;;;;;;;11.60;3.70;;;14.40;1.00;;;;;;5101175;28;20731;-65
2022/11/02 08:25:30;;;;;;;7.97;2.50;;;14.30;1.00;;;;;;5070413;28;20348;-64
2022/11/02 08:27:58;;;;;;;9.47;2.90;;;14.20;1.00;;;;;;5067821;28;20321;-65
2022/11/02 08:30:27;;;;;;;17.20;2.93;;;14.40;1.00;;;;;;5085590;28;20204;-67
2022/11/02 08:32:54;;;;;;;14.07;2.97;;;14.30;1.00;;;;;;5099750;28;20209;-64
2022/11/02 08:35:26;;;;;;;8.70;2.67;;;14.30;1.00;;;;;;5099492;28;20220;-63
2022/11/02 08:37:54;;;;;;;10.60;2.37;;;14.20;1.00;;;;;;5094699;28;20741;-65
2022/11/02 08:40:21;;;;;;;11.03;2.90;;;14.40;1.00;;;;;;5078759;28;20194;-65
2022/11/02 08:42:48;;;;;;;11.13;2.63;;;14.40;1.00;;;;;;5082500;28;20197;-65
2022/11/02 08:45:16;;;;;;;9.15;2.40;;;14.60;1.00;;;;;;5101356;28;20565;-64
2022/11/02 08:47:43;;;;;;;11.17;3.30;;;14.90;1.00;;;;;;5083273;28;20243;-64
2022/11/02 08:50:10;;;;;;;11.97;3.50;;;15.10;1.00;;;;;;5084047;28;20225;-65
2022/11/02 08:52:37;;;;;;;7.10;2.00;;;15.30;1.00;;;;;;5080912;28;20748;-66
2022/11/02 08:55:07;;;;;;;11.77;2.88;;;15.00;1.00;;;;;;5086449;28;20216;-65
2022/11/02 08:57:44;;;;;;;11.05;3.95;;;14.70;1.00;;;;;;5081440;28;20249;-67
2022/11/02 09:00:12;;;;;;;10.80;3.05;;;15.50;1.00;;;;;;5072546;28;20279;-64
2022/11/02 09:02:39;;;;;;;9.73;2.35;;;15.50;1.00;;;;;;5102083;28;20280;-64
2022/11/02 09:05:07;;;;;;;12.97;3.70;;;16.10;1.00;;;;;;5083557;28;20213;-65
2022/11/02 09:07:33;;;;;;;10.93;3.00;;;15.00;1.00;;;;;;5104343;28;20330;-65
2022/11/02 09:10:00;;;;;;;11.70;2.80;;;14.60;1.00;;;;;;5103489;28;20641;-66
2022/11/02 09:12:27;;;;;;;10.23;3.70;;;14.40;1.00;;;;;;5101667;28;20288;-65
2022/11/02 09:14:54;;;;;;;8.45;2.90;;;15.80;1.00;;;;;;5100875;28;20193;-64
2022/11/02 09:17:21;;;;;;;8.80;3.28;;;17.70;1.00;;;;;;5092912;28;20198;-65
2022/11/02 09:19:48;;;;;;;7.50;2.63;;;20.70;1.00;;;;;;5086374;28;20292;-65
2022/11/02 09:22:15;;;;;;;11.65;3.33;;;21.60;1.00;;;;;;5085011;28;20205;-63
2022/11/02 09:24:42;;;;;;;11.48;3.25;;;21.40;1.00;;;;;;5068493;28;20217;-65
2022/11/02 09:27:09;;;;;;;8.15;2.38;;;22.30;1.00;;;;;;5104238;28;20217;-63
2022/11/02 09:29:41;;;;;;;9.38;2.65;;;21.30;1.00;;;;;;5086029;28;20190;-66
2022/11/02 09:32:17;;;;;;;11.63;3.88;;;18.70;1.00;;;;;;5086343;28;20189;-64
2022/11/02 09:34:46;;;;;;;9.68;3.05;;;23.30;1.00;;;;;;5090460;28;20199;-66
2022/11/02 09:37:13;;;;;;;11.48;2.92;;;22.60;1.00;;;;;;5075099;28;20634;-64
2022/11/02 09:39:44;;;;;;;9.70;2.15;;;20.80;1.00;;;;;;5101530;28;20239;-65
2022/11/02 09:42:21;;;;;;;6.97;2.50;;;20.30;1.00;;;;;;5103469;28;20784;-67
2022/11/02 09:45:19;;;;;;;11.13;2.40;;;18.40;1.00;;;;;;5081861;28;21613;-65
2022/11/02 09:47:59;;;;;;;10.18;2.25;;;21.50;1.00;;;;;;5103115;28;20213;-64
2022/11/02 09:50:55;;;;;;;8.00;2.30;;;26.30;1.00;;;;;;5100878;28;20183;-64
2022/11/02 09:53:53;;;;;;;9.10;2.88;;;26.10;1.00;;;;;;5101375;28;20774;-65
2022/11/02 09:56:20;;;;;;;8.40;2.88;;;24.80;1.00;;;;;;5084485;28;20201;-64
2022/11/02 09:59:18;;;;;;;8.18;4.22;;;25.00;1.00;;;;;;5101731;28;20281;-65
2022/11/02 10:02:22;;;;;;;6.53;2.80;;;22.00;1.00;;;;;;5101635;28;20209;-65
2022/11/02 10:05:20;;;;;;;7.32;2.80;;;22.90;1.00;;;;;;5080770;28;20781;-64
2022/11/02 10:08:21;;;;;;;6.45;2.20;;;26.70;1.00;;;;;;5101132;28;20602;-65
2022/11/02 10:11:09;;;;;;;7.25;2.45;;;23.90;1.00;;;;;;5103146;28;20280;-64
2022/11/02 10:14:03;;;;;;;6.63;2.42;;;24.10;1.00;;;;;;5083332;28;20547;-63
2022/11/02 10:16:41;;;;;;;7.07;2.03;;;25.80;1.00;;;;;;5085305;28;20580;-65
2022/11/02 10:19:15;;;;;;;8.48;2.35;;;25.30;1.00;;;;;;5081714;28;20200;-65
2022/11/02 10:21:45;;;;;;;6.32;2.00;;;24.90;1.00;;;;;;5101036;28;20239;-65
2022/11/02 10:24:31;;;;;;;5.35;2.20;;;24.00;1.00;;;;;;5100635;28;20219;-66
2022/11/02 10:27:04;;;;;;;8.73;2.30;;;22.70;1.00;;;;;;5100673;28;20408;-65
2022/11/02 10:29:38;;;;;;;9.10;2.15;;;19.50;1.00;;;;;;5099131;28;20254;-65
2022/11/02 10:32:09;;;;;;;5.72;2.10;;;21.40;1.00;;;;;;5090640;28;20751;-68
2022/11/02 10:34:36;;;;;;;6.75;2.05;;;21.40;1.00;;;;;;5098238;28;20276;-66
2022/11/02 10:37:38;;;;;;;6.38;1.98;;;20.60;1.00;;;;;;5101089;28;20308;-64
2022/11/02 10:40:47;;;;;;;9.40;2.47;;;21.40;1.00;;;;;;5098804;28;20283;-66
2022/11/02 10:43:42;;;;;;;9.48;2.65;;;21.30;1.00;;;;;;5099161;28;20201;-63
2022/11/02 10:46:30;;;;;;;11.27;2.85;;;20.10;1.00;;;;;;5099678;28;20229;-65
2022/11/02 10:49:22;;;;;;;7.00;2.17;;;19.00;1.00;;;;;;5100184;28;20198;-66
2022/11/02 10:51:49;;;;;;;10.15;2.47;;;19.80;1.00;;;;;;5073528;28;20198;-65
2022/11/02 10:54:16;;;;;;;9.50;3.08;;;21.20;1.00;;;;;;5081198;28;20285;-66
2022/11/02 10:56:54;;;;;;;9.35;2.42;;;21.60;1.00;;;;;;5099093;28;20541;-64
2022/11/02 10:59:22;;;;;;;6.13;2.08;;;22.70;1.00;;;;;;5088714;28;20608;-66
2022/11/02 11:01:55;;;;;;;6.72;2.50;;;24.10;1.00;;;;;;5083741;28;20214;-66
2022/11/02 11:04:30;;;;;;;7.03;2.50;;;23.90;1.00;;;;;;5071693;28;20348;-65
2022/11/02 11:07:05;;;;;;;6.30;2.35;;;25.20;1.00;;;;;;5066139;28;20201;-65
2022/11/02 11:09:54;;;;;;;5.78;2.05;;;25.60;1.00;;;;;;5089309;28;20193;-64
2022/11/02 11:12:32;;;;;;;7.38;2.45;;;27.00;1.00;;;;;;5065614;28;20202;-65
2022/11/02 11:15:01;;;;;;;11.20;2.42;;;24.60;1.00;;;;;;5088700;28;20559;-64
2022/11/02 11:17:49;;;;;;;9.40;3.42;;;22.90;1.00;;;;;;5084609;28;20217;-66
2022/11/02 11:20:38;;;;;;;6.68;2.28;;;23.50;1.00;;;;;;5080560;28;20207;-65
2022/11/02 11:23:19;;;;;;;8.30;2.10;;;22.90;1.00;;;;;;5087662;28;20198;-64
2022/11/02 11:25:56;;;;;;;9.07;2.20;;;24.00;1.00;;;;;;5098675;28;20292;-65
2022/11/02 11:28:41;;;;;;;7.07;2.35;;;23.60;1.00;;;;;;5100086;28;20311;-64
2022/11/02 11:31:10;;;;;;;8.50;3.60;;;22.00;1.00;;;;;;5100883;28;20221;-65
2022/11/02 11:33:50;;;;;;;10.95;2.33;;;22.70;1.00;;;;;;5099128;28;20217;-66
2022/11/02 11:36:35;;;;;;;4.20;1.98;;;22.60;1.00;;;;;;5077881;28;20217;-66
2022/11/02 11:39:15;;;;;;;9.60;2.40;;;21.40;1.00;;;;;;5083026;28;20296;-64
2022/11/02 11:41:42;;;;;;;8.57;2.17;;;22.80;1.00;;;;;;5082734;28;20771;-62
2022/11/02 11:44:13;;;;;;;6.05;2.45;;;21.60;1.00;;;;;;5098860;28;20205;-62
2022/11/02 11:46:51;;;;;;;10.63;2.55;;;21.00;1.00;;;;;;5090062;28;20197;-62
2022/11/02 11:49:40;;;;;;;6.63;2.30;;;21.10;1.00;;;;;;5089589;28;20255;-62
2022/11/02 11:52:30;;;;;;;6.68;2.42;;;20.60;1.00;;;;;;5067882;28;20792;-63
2022/11/02 11:55:00;;;;;;;7.63;2.95;;;21.10;1.00;;;;;;5066795;28;20285;-65
2022/11/02 11:57:31;;;;;;;6.93;2.40;;;22.30;1.00;;;;;;5100504;28;20208;-63
2022/11/02 12:00:03;;;;;;;5.93;2.20;;;22.20;1.00;;;;;;5083086;28;20214;-63
2022/11/02 12:02:35;;;;;;;9.18;2.80;;;21.70;1.00;;;;;;5099648;28;20401;-63
2022/11/02 12:05:15;;;;;;;8.57;2.45;;;21.90;1.00;;;;;;5082036;28;20205;-63
2022/11/02 12:08:06;;;;;;;6.82;2.38;;;21.90;1.00;;;;;;5100023;28;20269;-63
2022/11/02 12:10:59;;;;;;;6.80;2.38;;;20.60;1.00;;;;;;5100127;28;20190;-63
2022/11/02 12:13:32;;;;;;;6.75;2.38;;;19.70;1.00;;;;;;5089532;28;20256;-63
2022/11/02 12:16:21;;;;;;;7.55;2.03;;;19.80;1.00;;;;;;5100580;28;20212;-64
2022/11/02 12:18:57;;;;;;;10.40;2.28;;;20.10;1.00;;;;;;5089168;28;20202;-63
2022/11/02 12:21:45;;;;;;;8.15;2.67;;;20.40;1.00;;;;;;5099658;28;20198;-63
2022/11/02 12:24:37;;;;;;;10.18;3.05;;;20.50;1.00;;;;;;5082325;28;20251;-63
2022/11/02 12:27:33;;;;;;;5.57;2.40;;;20.60;1.00;;;;;;5080768;28;20903;-63
2022/11/02 12:30:23;;;;;;;7.15;2.50;;;19.70;1.00;;;;;;5066456;28;20279;-63
2022/11/02 12:33:05;;;;;;;4.78;2.38;;;19.20;1.00;;;;;;5099474;28;20281;-64
2022/11/02 12:35:41;;;;;;;10.88;2.53;;;19.00;1.00;;;;;;5087403;28;20201;-64
2022/11/02 12:38:42;;;;;;;7.38;2.47;;;18.90;1.00;;;;;;5095289;28;20216;-63
2022/11/02 12:41:15;;;;;;;7.95;2.20;;;19.30;1.00;;;;;;5104406;28;20694;-63
2022/11/02 12:43:48;;;;;;;6.40;2.50;;;18.70;1.00;;;;;;5105212;28;20220;-64
2022/11/02 12:46:27;;;;;;;9.20;3.08;;;18.40;1.00;;;;;;5105927;28;20252;-64
2022/11/02 12:49:24;;;;;;;12.55;2.50;;;17.70;1.00;;;;;;5104922;28;20263;-65
2022/11/02 12:51:57;;;;;;;5.60;2.28;;;18.70;1.00;;;;;;5095102;28;20287;-64
2022/11/02 12:54:34;;;;;;;8.20;2.60;;;18.90;1.00;;;;;;5106032;28;20574;-64
2022/11/02 12:57:13;;;;;;;10.18;2.78;;;18.80;1.00;;;;;;5107344;28;20590;-63
2022/11/02 12:59:42;;;;;;;10.55;2.58;;;18.30;1.00;;;;;;5106353;28;20189;-63
2022/11/02 13:02:15;;;;;;;6.40;2.28;;;18.40;1.00;;;;;;5087554;28;20586;-66
2022/11/02 13:04:48;;;;;;;8.40;1.88;;;18.70;1.00;;;;;;5092551;28;20715;-65
2022/11/02 13:07:22;;;;;;;6.70;2.40;;;18.50;1.00;;;;;;5090562;28;20263;-67
2022/11/02 13:10:06;;;;;;;12.52;2.47;;;18.20;1.00;;;;;;5089615;28;20657;-65
2022/11/02 13:12:35;;;;;;;5.82;2.60;;;18.00;1.00;;;;;;5088875;28;20233;-63
2022/11/02 13:15:04;;;;;;;10.93;2.15;;;17.90;1.00;;;;;;5087230;28;20194;-65
2022/11/02 13:17:39;;;;;;;7.78;2.33;;;17.50;1.00;;;;;;5105327;28;20193;-67
2022/11/02 13:20:18;;;;;;;8.35;2.00;;;17.30;1.00;;;;;;5094046;28;20197;-65
2022/11/02 13:23:00;;;;;;;6.25;2.30;;;17.00;1.00;;;;;;5087049;28;20201;-65
2022/11/02 13:25:41;;;;;;;8.60;2.30;;;16.80;1.00;;;;;;5094129;28;20218;-67
2022/11/02 13:28:29;;;;;;;7.07;2.72;;;16.90;1.00;;;;;;5095510;28;20750;-66
2022/11/02 13:30:58;;;;;;;6.68;2.22;;;17.00;1.00;;;;;;5108561;28;20194;-64
2022/11/02 13:33:33;;;;;;;8.90;2.92;;;17.10;1.00;;;;;;5085568;28;20608;-64
2022/11/02 13:36:00;;;;;;;9.25;2.72;;;17.20;1.00;;;;;;5077441;28;20699;-64
2022/11/02 13:38:37;;;;;;;11.48;1.88;;;17.10;1.00;;;;;;5078101;28;20189;-65
2022/11/02 13:41:19;;;;;;;7.03;2.17;;;16.80;1.00;;;;;;5072428;28;20231;-65